createdAt,value
2019-02-22T00:00:08.400Z,948.33
2019-02-22T00:01:09.391Z,948.3
2019-02-22T00:02:10.363Z,948.33
2019-02-22T00:03:10.781Z,948.38
2019-02-22T00:04:11.476Z,948.38
2019-02-22T00:05:12.195Z,948.41
2019-02-22T00:06:12.641Z,948.41
2019-02-22T00:07:13.608Z,948.38
2019-02-22T00:08:14.682Z,948.38
2019-02-22T00:09:15.650Z,948.41
2019-02-22T00:10:16.423Z,948.41
2019-02-22T00:11:16.844Z,948.42
2019-02-22T00:12:17.541Z,948.4
2019-02-22T00:13:17.792Z,948.45
2019-02-22T00:14:19.053Z,948.43
2019-02-22T00:15:19.626Z,948.45
2019-02-22T00:16:20.083Z,948.44
2019-02-22T00:17:21.212Z,948.43
2019-02-22T00:18:22.195Z,948.42
2019-02-22T00:19:23.189Z,948.41
2019-02-22T00:20:23.894Z,948.44
2019-02-22T00:21:24.309Z,948.43
2019-02-22T00:22:25.348Z,948.48
2019-02-22T00:23:26.318Z,948.47
2019-02-22T00:24:26.850Z,948.48
2019-02-22T00:25:27.549Z,948.52
2019-02-22T00:26:28.247Z,948.57
2019-02-22T00:27:29.107Z,948.53
2019-02-22T00:28:30.101Z,948.54
2019-02-22T00:29:30.525Z,948.54
2019-02-22T00:30:30.934Z,948.57
2019-02-22T00:31:31.969Z,948.56
2019-02-22T00:32:32.743Z,948.58
2019-02-22T00:33:33.719Z,948.59
2019-02-22T00:34:34.864Z,948.57
2019-02-22T00:35:36.372Z,948.58
2019-02-22T00:36:37.950Z,948.56
2019-02-22T00:37:39.035Z,948.59
2019-02-22T00:38:39.214Z,948.57
2019-02-22T00:39:40.212Z,948.63
2019-02-22T00:40:40.469Z,948.62
2019-02-22T00:41:41.232Z,948.57
2019-02-22T00:42:42.212Z,948.57
2019-02-22T00:43:43.191Z,948.59
2019-02-22T00:44:43.402Z,948.61
2019-02-22T00:45:43.599Z,948.63
2019-02-22T00:46:44.199Z,948.58
2019-02-22T00:47:45.314Z,948.61
2019-02-22T00:48:46.020Z,948.61
2019-02-22T00:49:46.721Z,948.65
2019-02-22T00:50:47.243Z,948.62
2019-02-22T00:51:47.667Z,948.61
2019-02-22T00:52:48.639Z,948.67
2019-02-22T00:53:50.060Z,948.65
2019-02-22T00:54:50.482Z,948.69
2019-02-22T00:55:51.478Z,948.72
2019-02-22T00:56:52.190Z,948.72
2019-02-22T00:57:52.388Z,948.75
2019-02-22T00:58:53.530Z,948.74
2019-02-22T00:59:54.499Z,948.76
2019-02-22T01:00:55.193Z,948.77
2019-02-22T01:01:55.445Z,948.75
2019-02-22T01:02:55.872Z,948.76
2019-02-22T01:03:57.006Z,948.79
2019-02-22T01:04:57.260Z,948.78
2019-02-22T01:05:58.679Z,948.8
2019-02-22T01:06:59.446Z,948.78
2019-02-22T01:08:00.321Z,948.82
2019-02-22T01:09:01.023Z,948.86
2019-02-22T01:10:02.274Z,948.87
2019-02-22T01:11:02.780Z,948.87
2019-02-22T01:12:04.061Z,948.8
2019-02-22T01:13:04.757Z,948.87
2019-02-22T01:14:05.246Z,948.85
2019-02-22T01:15:05.727Z,948.81
2019-02-22T01:16:06.227Z,948.78
2019-02-22T01:17:07.209Z,948.78
2019-02-22T01:18:08.177Z,948.8
2019-02-22T01:19:08.871Z,948.76
2019-02-22T01:20:09.692Z,948.83
2019-02-22T01:21:10.226Z,948.78
2019-02-22T01:22:10.925Z,948.84
2019-02-22T01:23:11.244Z,948.84
2019-02-22T01:24:11.456Z,948.82
2019-02-22T01:25:12.264Z,948.74
2019-02-22T01:26:13.011Z,948.76
2019-02-22T01:27:13.706Z,948.71
2019-02-22T01:28:14.816Z,948.73
2019-02-22T01:29:15.624Z,948.71
2019-02-22T01:30:16.608Z,948.68
2019-02-22T01:31:17.748Z,948.67
2019-02-22T01:32:18.998Z,948.7
2019-02-22T01:33:19.852Z,948.69
2019-02-22T01:34:20.703Z,948.73
2019-02-22T01:35:21.681Z,948.7
2019-02-22T01:36:22.131Z,948.74
2019-02-22T01:37:22.723Z,948.71
2019-02-22T01:38:23.144Z,948.73
2019-02-22T01:39:24.282Z,948.71
2019-02-22T01:40:24.999Z,948.71
2019-02-22T01:41:25.707Z,948.67
2019-02-22T01:42:26.702Z,948.72
2019-02-22T01:43:27.400Z,948.73
2019-02-22T01:44:28.541Z,948.66
2019-02-22T01:45:28.814Z,948.65
2019-02-22T01:46:29.957Z,948.6
2019-02-22T01:47:30.208Z,948.64
2019-02-22T01:48:31.344Z,948.62
2019-02-22T01:49:31.790Z,948.6
2019-02-22T01:50:32.933Z,948.59
2019-02-22T01:51:33.628Z,948.63
2019-02-22T01:52:34.045Z,948.58
2019-02-22T01:53:34.742Z,948.61
2019-02-22T01:54:36.001Z,948.55
2019-02-22T01:55:37.144Z,948.55
2019-02-22T01:56:37.704Z,948.55
2019-02-22T01:57:38.405Z,948.59
2019-02-22T01:58:52.301Z,948.51
2019-02-22T01:59:53.292Z,948.56
2019-02-22T02:00:53.992Z,948.51
2019-02-22T02:01:54.710Z,948.48
2019-02-22T02:02:55.987Z,948.55
2019-02-22T02:03:56.991Z,948.52
2019-02-22T02:04:57.264Z,948.55
2019-02-22T02:05:57.988Z,948.49
2019-02-22T02:06:58.428Z,948.52
2019-02-22T02:07:58.871Z,948.51
2019-02-22T02:08:59.567Z,948.45
2019-02-22T02:10:00.315Z,948.47
2019-02-22T02:11:01.286Z,948.5
2019-02-22T02:12:02.722Z,948.46
2019-02-22T02:13:03.142Z,948.49
2019-02-22T02:14:03.835Z,948.45
2019-02-22T02:15:04.251Z,948.48
2019-02-22T02:16:05.223Z,948.52
2019-02-22T02:17:05.655Z,948.47
2019-02-22T02:18:05.904Z,948.54
2019-02-22T02:19:06.608Z,948.57
2019-02-22T02:20:08.122Z,948.52
2019-02-22T02:21:08.576Z,948.5
2019-02-22T02:22:08.916Z,948.56
2019-02-22T02:23:10.081Z,948.51
2019-02-22T02:24:10.774Z,948.5
2019-02-22T02:25:11.215Z,948.53
2019-02-22T02:26:12.014Z,948.52
2019-02-22T02:27:12.989Z,948.5
2019-02-22T02:28:14.129Z,948.53
2019-02-22T02:29:15.114Z,948.57
2019-02-22T02:30:16.093Z,948.56
2019-02-22T02:31:16.739Z,948.53
2019-02-22T02:32:17.439Z,948.51
2019-02-22T02:33:18.416Z,948.46
2019-02-22T02:34:18.699Z,948.44
2019-02-22T02:35:20.029Z,948.43
2019-02-22T02:35:33.030Z,948.44
2019-02-22T02:36:32.711Z,948.46
2019-02-22T02:37:33.750Z,948.52
2019-02-22T02:38:34.020Z,948.53
2019-02-22T02:39:35.022Z,948.45
2019-02-22T02:40:36.278Z,948.48
2019-02-22T02:41:36.720Z,948.44
2019-02-22T02:42:37.572Z,948.46
2019-02-22T02:43:38.708Z,948.52
2019-02-22T02:44:39.675Z,948.48
2019-02-22T02:45:40.090Z,948.43
2019-02-22T02:46:40.651Z,948.4
2019-02-22T02:47:41.353Z,948.43
2019-02-22T02:48:41.598Z,948.42
2019-02-22T02:49:42.023Z,948.36
2019-02-22T02:50:42.788Z,948.42
2019-02-22T02:51:43.320Z,948.38
2019-02-22T02:52:43.902Z,948.38
2019-02-22T02:53:44.908Z,948.32
2019-02-22T02:54:45.165Z,948.31
2019-02-22T02:55:45.934Z,948.31
2019-02-22T02:56:46.723Z,948.32
2019-02-22T02:57:47.218Z,948.35
2019-02-22T02:58:47.657Z,948.29
2019-02-22T02:59:48.626Z,948.33
2019-02-22T03:00:49.180Z,948.33
2019-02-22T03:01:50.319Z,948.35
2019-02-22T03:02:51.577Z,948.35
2019-02-22T03:03:52.133Z,948.32
2019-02-22T03:04:53.383Z,948.29
2019-02-22T03:05:53.645Z,948.31
2019-02-22T03:06:54.186Z,948.28
2019-02-22T03:07:54.733Z,948.27
2019-02-22T03:08:55.871Z,948.25
2019-02-22T03:09:56.974Z,948.26
2019-02-22T03:10:58.200Z,948.3
2019-02-22T03:11:59.169Z,948.28
2019-02-22T03:13:00.285Z,948.29
2019-02-22T03:14:01.303Z,948.34
2019-02-22T03:15:01.844Z,948.27
2019-02-22T03:16:03.139Z,948.27
2019-02-22T03:17:04.095Z,948.3
2019-02-22T03:18:04.802Z,948.3
2019-02-22T03:19:05.520Z,948.31
2019-02-22T03:20:06.054Z,948.33
2019-02-22T03:21:07.471Z,948.28
2019-02-22T03:22:08.443Z,948.36
2019-02-22T03:23:09.443Z,948.31
2019-02-22T03:24:10.418Z,948.34
2019-02-22T03:25:11.393Z,948.32
2019-02-22T03:26:12.088Z,948.36
2019-02-22T03:27:12.790Z,948.38
2019-02-22T03:28:13.300Z,948.42
2019-02-22T03:29:14.276Z,948.42
2019-02-22T03:30:15.291Z,948.47
2019-02-22T03:31:15.892Z,948.42
2019-02-22T03:32:16.518Z,948.45
2019-02-22T03:33:17.432Z,948.46
2019-02-22T03:34:18.198Z,948.42
2019-02-22T03:35:19.528Z,948.45
2019-02-22T03:36:20.790Z,948.48
2019-02-22T03:37:21.777Z,948.46
2019-02-22T03:38:22.591Z,948.44
2019-02-22T03:39:23.134Z,948.44
2019-02-22T03:40:23.702Z,948.47
2019-02-22T03:41:37.455Z,948.47
2019-02-22T03:42:38.495Z,948.47
2019-02-22T03:43:38.737Z,948.47
2019-02-22T03:44:39.437Z,948.5
2019-02-22T03:45:39.853Z,948.45
2019-02-22T03:46:40.386Z,948.53
2019-02-22T03:47:41.092Z,948.57
2019-02-22T03:48:42.511Z,948.57
2019-02-22T03:49:42.972Z,948.59
2019-02-22T03:50:43.955Z,948.6
2019-02-22T03:51:44.656Z,948.62
2019-02-22T03:52:45.491Z,948.63
2019-02-22T03:53:46.253Z,948.6
2019-02-22T03:54:46.532Z,948.62
2019-02-22T03:55:47.080Z,948.67
2019-02-22T03:56:47.497Z,948.64
2019-02-22T03:57:48.062Z,948.6
2019-02-22T03:58:48.617Z,948.61
2019-02-22T03:59:51.701Z,948.64
2019-02-22T04:00:52.747Z,948.62
2019-02-22T04:01:53.188Z,948.62
2019-02-22T04:02:54.297Z,948.64
2019-02-22T04:03:54.994Z,948.64
2019-02-22T04:04:55.537Z,948.58
2019-02-22T04:05:56.560Z,948.58
2019-02-22T04:06:57.258Z,948.64
2019-02-22T04:07:57.795Z,948.61
2019-02-22T04:08:59.073Z,948.59
2019-02-22T04:09:59.363Z,948.51
2019-02-22T04:11:00.115Z,948.54
2019-02-22T04:12:00.952Z,948.56
2019-02-22T04:13:01.770Z,948.54
2019-02-22T04:14:02.487Z,948.62
2019-02-22T04:15:03.636Z,948.61
2019-02-22T04:16:04.661Z,948.58
2019-02-22T04:17:05.084Z,948.57
2019-02-22T04:18:05.521Z,948.57
2019-02-22T04:19:06.053Z,948.6
2019-02-22T04:20:06.578Z,948.63
2019-02-22T04:21:07.277Z,948.62
2019-02-22T04:22:07.705Z,948.62
2019-02-22T04:23:08.622Z,948.63
2019-02-22T04:24:09.072Z,948.65
2019-02-22T04:25:09.853Z,948.65
2019-02-22T04:26:10.267Z,948.68
2019-02-22T04:27:11.255Z,948.77
2019-02-22T04:28:11.529Z,948.81
2019-02-22T04:29:12.306Z,948.79
2019-02-22T04:30:12.587Z,948.86
2019-02-22T04:31:13.302Z,948.93
2019-02-22T04:32:13.744Z,948.93
2019-02-22T04:33:14.615Z,948.94
2019-02-22T04:34:15.201Z,948.96
2019-02-22T04:35:15.617Z,948.92
2019-02-22T04:36:16.588Z,948.9
2019-02-22T04:37:17.580Z,948.86
2019-02-22T04:38:17.858Z,948.86
2019-02-22T04:39:18.859Z,948.88
2019-02-22T04:40:20.107Z,948.86
2019-02-22T04:41:20.538Z,948.79
2019-02-22T04:42:21.539Z,948.8
2019-02-22T04:43:22.514Z,948.71
2019-02-22T04:44:23.277Z,948.75
2019-02-22T04:45:24.010Z,948.68
2019-02-22T04:46:24.998Z,948.68
2019-02-22T04:47:25.993Z,948.69
2019-02-22T04:48:26.971Z,948.63
2019-02-22T04:49:27.455Z,948.61
2019-02-22T04:50:27.735Z,948.6
2019-02-22T04:51:27.995Z,948.58
2019-02-22T04:52:29.253Z,948.64
2019-02-22T04:53:30.017Z,948.61
2019-02-22T04:54:30.206Z,948.62
2019-02-22T04:55:30.669Z,948.63
2019-02-22T04:56:31.676Z,948.64
2019-02-22T04:57:32.257Z,948.64
2019-02-22T04:58:32.891Z,948.7
2019-02-22T04:59:34.158Z,948.66
2019-02-22T05:00:34.589Z,948.67
2019-02-22T05:01:35.283Z,948.68
2019-02-22T05:02:36.266Z,948.66
2019-02-22T05:03:37.259Z,948.7
2019-02-22T05:04:37.548Z,948.71
2019-02-22T05:05:38.245Z,948.72
2019-02-22T05:06:38.538Z,948.72
2019-02-22T05:07:39.812Z,948.75
2019-02-22T05:08:40.238Z,948.74
2019-02-22T05:09:40.477Z,948.79
2019-02-22T05:10:41.617Z,948.72
2019-02-22T05:11:42.107Z,948.76
2019-02-22T05:12:42.363Z,948.79
2019-02-22T05:13:42.765Z,948.75
2019-02-22T05:14:43.784Z,948.76
2019-02-22T05:15:44.939Z,948.81
2019-02-22T05:16:45.195Z,948.82
2019-02-22T05:17:45.622Z,948.85
2019-02-22T05:18:46.613Z,948.83
2019-02-22T05:19:46.875Z,948.86
2019-02-22T05:20:47.417Z,948.84
2019-02-22T05:21:48.117Z,948.88
2019-02-22T05:22:48.381Z,948.89
2019-02-22T05:23:49.350Z,948.89
2019-02-22T05:24:50.488Z,948.91
2019-02-22T05:25:51.004Z,948.94
2019-02-22T05:26:51.698Z,948.99
2019-02-22T05:27:52.677Z,948.99
2019-02-22T05:28:53.678Z,949.01
2019-02-22T05:29:54.260Z,949.01
2019-02-22T05:30:54.965Z,949.05
2019-02-22T05:31:55.686Z,949.01
2019-02-22T05:32:56.232Z,949.06
2019-02-22T05:33:57.159Z,949.07
2019-02-22T05:34:58.225Z,949.08
2019-02-22T05:35:59.053Z,949.08
2019-02-22T05:37:00.305Z,949.04
2019-02-22T05:38:00.940Z,949.07
2019-02-22T05:39:01.945Z,949.09
2019-02-22T05:40:02.764Z,949.04
2019-02-22T05:41:03.470Z,949.07
2019-02-22T05:42:04.258Z,949.01
2019-02-22T05:43:04.522Z,949.06
2019-02-22T05:44:05.198Z,949.06
2019-02-22T05:45:05.622Z,949.06
2019-02-22T05:46:05.884Z,949.07
2019-02-22T05:47:07.146Z,949.03
2019-02-22T05:48:08.158Z,949.08
2019-02-22T05:49:09.143Z,949.09
2019-02-22T05:50:09.878Z,949.08
2019-02-22T05:51:10.301Z,949.11
2019-02-22T05:52:10.896Z,949.12
2019-02-22T05:53:11.165Z,949.14
2019-02-22T05:54:11.588Z,949.16
2019-02-22T05:55:12.032Z,949.2
2019-02-22T05:56:13.008Z,949.15
2019-02-22T05:57:14.980Z,949.17
2019-02-22T05:58:15.262Z,949.18
2019-02-22T05:59:15.613Z,949.16
2019-02-22T06:00:16.584Z,949.16
2019-02-22T06:01:17.413Z,949.17
2019-02-22T06:02:17.935Z,949.17
2019-02-22T06:03:18.510Z,949.2
2019-02-22T06:04:19.002Z,949.15
2019-02-22T06:05:19.773Z,949.21
2019-02-22T06:06:20.490Z,949.24
2019-02-22T06:07:21.515Z,949.14
2019-02-22T06:08:22.488Z,949.2
2019-02-22T06:09:23.036Z,949.22
2019-02-22T06:10:24.340Z,949.18
2019-02-22T06:11:25.593Z,949.22
2019-02-22T06:12:38.609Z,949.22
2019-02-22T06:13:39.608Z,949.22
2019-02-22T06:14:40.152Z,949.2
2019-02-22T06:15:41.161Z,949.22
2019-02-22T06:16:41.432Z,949.21
2019-02-22T06:17:42.410Z,949.18
2019-02-22T06:18:42.828Z,949.15
2019-02-22T06:19:43.529Z,949.16
2019-02-22T06:20:44.227Z,949.1
2019-02-22T06:21:44.961Z,949.17
2019-02-22T06:22:45.679Z,949.17
2019-02-22T06:23:46.180Z,949.23
2019-02-22T06:24:47.402Z,949.19
2019-02-22T06:25:48.555Z,949.27
2019-02-22T06:26:48.812Z,949.27
2019-02-22T06:27:49.544Z,949.22
2019-02-22T06:28:49.797Z,949.26
2019-02-22T06:29:50.773Z,949.26
2019-02-22T06:30:51.040Z,949.19
2019-02-22T06:31:52.066Z,949.24
2019-02-22T06:32:52.784Z,949.24
2019-02-22T06:33:53.489Z,949.2
2019-02-22T06:34:54.629Z,949.27
2019-02-22T06:35:55.781Z,949.27
2019-02-22T06:37:02.636Z,949.26
2019-02-22T06:37:07.914Z,949.28
2019-02-22T06:38:08.844Z,949.32
2019-02-22T06:39:09.831Z,949.36
2019-02-22T06:40:10.557Z,949.38
2019-02-22T06:41:11.287Z,949.36
2019-02-22T06:42:11.761Z,949.37
2019-02-22T06:43:12.549Z,949.35
2019-02-22T06:44:13.109Z,949.3
2019-02-22T06:45:13.530Z,949.28
2019-02-22T06:46:14.506Z,949.34
2019-02-22T06:47:15.765Z,949.34
2019-02-22T06:48:16.166Z,949.31
2019-02-22T06:49:16.598Z,949.36
2019-02-22T06:50:17.878Z,949.36
2019-02-22T06:51:18.504Z,949.35
2019-02-22T06:52:19.317Z,949.33
2019-02-22T06:53:20.630Z,949.4
2019-02-22T06:54:21.504Z,949.4
2019-02-22T06:55:22.858Z,949.47
2019-02-22T06:56:24.725Z,949.46
2019-02-22T06:57:25.856Z,949.47
2019-02-22T06:58:25.982Z,949.46
2019-02-22T06:59:26.686Z,949.5
2019-02-22T07:00:27.416Z,949.5
2019-02-22T07:01:27.847Z,949.54
2019-02-22T07:02:29.098Z,949.56
2019-02-22T07:03:29.909Z,949.6
2019-02-22T07:04:30.899Z,949.59
2019-02-22T07:05:32.016Z,949.65
2019-02-22T07:06:32.837Z,949.65
2019-02-22T07:07:33.942Z,949.6
2019-02-22T07:08:34.764Z,949.66
2019-02-22T07:09:35.204Z,949.65
2019-02-22T07:10:35.819Z,949.69
2019-02-22T07:11:38.287Z,949.65
2019-02-22T07:12:39.033Z,949.69
2019-02-22T07:13:39.498Z,949.73
2019-02-22T07:14:39.918Z,949.74
2019-02-22T07:15:40.623Z,949.72
2019-02-22T07:16:41.602Z,949.71
2019-02-22T07:17:42.875Z,949.68
2019-02-22T07:18:44.002Z,949.7
2019-02-22T07:19:44.497Z,949.66
2019-02-22T07:20:45.267Z,949.67
2019-02-22T07:21:53.450Z,949.66
2019-02-22T07:21:58.175Z,949.68
2019-02-22T07:22:58.832Z,949.7
2019-02-22T07:23:59.139Z,949.76
2019-02-22T07:24:59.510Z,949.76
2019-02-22T07:25:59.898Z,949.77
2019-02-22T07:27:00.497Z,949.77
2019-02-22T07:28:00.812Z,949.77
2019-02-22T07:29:01.799Z,949.76
2019-02-22T07:30:02.803Z,949.76
2019-02-22T07:31:04.234Z,949.74
2019-02-22T07:32:06.952Z,949.74
2019-02-22T07:33:07.464Z,949.81
2019-02-22T07:34:08.164Z,949.81
2019-02-22T07:35:10.291Z,949.86
2019-02-22T07:35:21.256Z,949.86
2019-02-22T07:36:22.131Z,949.87
2019-02-22T07:37:23.390Z,949.83
2019-02-22T07:38:24.655Z,949.82
2019-02-22T07:39:28.805Z,949.85
2019-02-22T07:40:29.864Z,949.89
2019-02-22T07:41:31.134Z,949.87
2019-02-22T07:42:31.444Z,949.88
2019-02-22T07:43:32.160Z,949.92
2019-02-22T07:44:33.343Z,949.9
2019-02-22T07:45:35.014Z,949.9
2019-02-22T07:45:45.961Z,949.88
2019-02-22T07:46:46.659Z,949.92
2019-02-22T07:47:47.718Z,949.93
2019-02-22T07:48:48.423Z,949.89
2019-02-22T07:49:49.123Z,949.91
2019-02-22T07:51:03.144Z,949.89
2019-02-22T07:52:03.809Z,949.89
2019-02-22T07:53:04.377Z,949.97
2019-02-22T07:54:05.430Z,949.95
2019-02-22T07:55:06.130Z,949.91
2019-02-22T07:56:07.176Z,949.98
2019-02-22T07:57:07.875Z,949.97
2019-02-22T07:58:09.109Z,950
2019-02-22T07:59:09.821Z,950.03
2019-02-22T08:00:10.798Z,950.07
2019-02-22T08:01:11.344Z,950.01
2019-02-22T08:02:11.890Z,949.99
2019-02-22T08:03:12.866Z,950.08
2019-02-22T08:04:13.843Z,950.04
2019-02-22T08:05:14.599Z,950.07
2019-02-22T08:06:15.749Z,950.13
2019-02-22T08:07:16.817Z,950.14
2019-02-22T08:08:17.528Z,950.14
2019-02-22T08:09:18.226Z,950.17
2019-02-22T08:10:18.806Z,950.17
2019-02-22T08:11:19.233Z,950.21
2019-02-22T08:12:20.535Z,950.2
2019-02-22T08:13:20.699Z,950.19
2019-02-22T08:14:20.897Z,950.21
2019-02-22T08:15:22.040Z,950.23
2019-02-22T08:16:22.738Z,950.24
2019-02-22T08:17:23.565Z,950.23
2019-02-22T08:18:24.067Z,950.21
2019-02-22T08:19:24.768Z,950.22
2019-02-22T08:20:25.919Z,950.23
2019-02-22T08:21:26.339Z,950.2
2019-02-22T08:22:27.467Z,950.26
2019-02-22T08:23:29.101Z,950.27
2019-02-22T08:24:29.290Z,950.29
2019-02-22T08:25:31.086Z,950.28
2019-02-22T08:26:32.269Z,950.25
2019-02-22T08:27:34.004Z,950.29
2019-02-22T08:27:52.925Z,950.28
2019-02-22T08:27:56.496Z,950.32
2019-02-22T08:28:08.870Z,950.32
2019-02-22T08:29:09.827Z,950.35
2019-02-22T08:30:10.527Z,950.41
2019-02-22T08:31:10.891Z,950.46
2019-02-22T08:32:11.615Z,950.44
2019-02-22T08:33:12.608Z,950.43
2019-02-22T08:34:13.614Z,950.45
2019-02-22T08:35:14.325Z,950.42
2019-02-22T08:36:15.395Z,950.43
2019-02-22T08:37:16.396Z,950.44
2019-02-22T08:38:16.931Z,950.48
2019-02-22T08:39:17.365Z,950.47
2019-02-22T08:40:17.790Z,950.49
2019-02-22T08:41:18.498Z,950.52
2019-02-22T08:42:19.645Z,950.52
2019-02-22T08:43:32.115Z,950.55
2019-02-22T08:44:33.136Z,950.54
2019-02-22T08:45:34.206Z,950.49
2019-02-22T08:46:34.689Z,950.53
2019-02-22T08:47:35.125Z,950.56
2019-02-22T08:48:35.549Z,950.57
2019-02-22T08:49:36.258Z,950.64
2019-02-22T08:50:37.404Z,950.7
2019-02-22T08:51:38.410Z,950.69
2019-02-22T08:52:39.291Z,950.69
2019-02-22T08:53:41.120Z,950.7
2019-02-22T08:54:48.085Z,950.67
2019-02-22T08:54:52.879Z,950.65
2019-02-22T08:55:53.543Z,950.67
2019-02-22T08:56:54.642Z,950.67
2019-02-22T08:57:55.415Z,950.66
2019-02-22T08:58:55.842Z,950.65
2019-02-22T08:59:56.817Z,950.65
2019-02-22T09:00:57.251Z,950.67
2019-02-22T09:01:57.950Z,950.62
2019-02-22T09:02:58.425Z,950.65
2019-02-22T09:03:58.855Z,950.67
2019-02-22T09:04:59.448Z,950.64
2019-02-22T09:06:00.397Z,950.7
2019-02-22T09:07:01.494Z,950.72
2019-02-22T09:08:02.196Z,950.73
2019-02-22T09:09:03.175Z,950.7
2019-02-22T09:10:04.609Z,950.71
2019-02-22T09:11:05.142Z,950.72
2019-02-22T09:12:05.370Z,950.78
2019-02-22T09:13:06.192Z,950.75
2019-02-22T09:14:07.183Z,950.74
2019-02-22T09:15:07.964Z,950.73
2019-02-22T09:16:08.613Z,950.77
2019-02-22T09:17:09.960Z,950.76
2019-02-22T09:18:10.678Z,950.76
2019-02-22T09:19:11.378Z,950.79
2019-02-22T09:20:12.371Z,950.76
2019-02-22T09:21:13.133Z,950.77
2019-02-22T09:22:25.884Z,950.81
2019-02-22T09:23:27.075Z,950.79
2019-02-22T09:24:28.053Z,950.78
2019-02-22T09:25:28.827Z,950.82
2019-02-22T09:26:29.574Z,950.81
2019-02-22T09:27:30.285Z,950.8
2019-02-22T09:28:31.065Z,950.79
2019-02-22T09:29:32.045Z,950.78
2019-02-22T09:30:32.482Z,950.8
2019-02-22T09:31:33.501Z,950.82
2019-02-22T09:32:33.926Z,950.82
2019-02-22T09:33:34.768Z,950.82
2019-02-22T09:34:35.190Z,950.81
2019-02-22T09:35:36.921Z,950.81
2019-02-22T09:36:37.364Z,950.79
2019-02-22T09:37:37.899Z,950.85
2019-02-22T09:38:38.878Z,950.81
2019-02-22T09:39:40.140Z,950.82
2019-02-22T09:40:41.288Z,950.82
2019-02-22T09:41:42.163Z,950.83
2019-02-22T09:42:42.858Z,950.86
2019-02-22T09:43:55.864Z,950.86
2019-02-22T09:44:55.963Z,950.86
2019-02-22T09:45:56.379Z,950.87
2019-02-22T09:46:57.092Z,950.91
2019-02-22T09:47:57.896Z,950.88
2019-02-22T09:48:58.706Z,950.91
2019-02-22T09:49:59.167Z,950.94
2019-02-22T09:50:59.430Z,950.9
2019-02-22T09:52:00.133Z,950.9
2019-02-22T09:53:01.279Z,950.94
2019-02-22T09:54:02.457Z,950.99
2019-02-22T09:55:03.140Z,951.02
2019-02-22T09:56:04.114Z,951
2019-02-22T09:57:05.116Z,950.99
2019-02-22T09:58:05.692Z,951.01
2019-02-22T09:59:06.844Z,951
2019-02-22T10:00:07.268Z,951.01
2019-02-22T10:01:07.690Z,951
2019-02-22T10:02:08.695Z,951.08
2019-02-22T10:03:09.963Z,951.09
2019-02-22T10:04:10.967Z,951.1
2019-02-22T10:04:56.713Z,951.09
2019-02-22T10:05:57.113Z,951.09
2019-02-22T10:06:58.379Z,951.12
2019-02-22T10:07:59.646Z,951.09
2019-02-22T10:09:00.648Z,951.13
2019-02-22T10:10:00.969Z,951.15
2019-02-22T10:11:01.225Z,951.15
2019-02-22T10:12:01.932Z,951.15
2019-02-22T10:13:02.357Z,951.23
2019-02-22T10:14:07.225Z,951.21
2019-02-22T10:14:15.238Z,951.21
2019-02-22T10:15:15.958Z,951.21
2019-02-22T10:16:16.944Z,951.21
2019-02-22T10:17:17.368Z,951.21
2019-02-22T10:18:18.209Z,951.22
2019-02-22T10:19:18.963Z,951.22
2019-02-22T10:20:19.892Z,951.22
2019-02-22T10:21:20.729Z,951.22
2019-02-22T10:22:21.723Z,951.2
2019-02-22T10:23:22.730Z,951.26
2019-02-22T10:24:23.632Z,951.28
2019-02-22T10:25:24.473Z,951.27
2019-02-22T10:26:24.888Z,951.31
2019-02-22T10:27:25.314Z,951.34
2019-02-22T10:28:26.024Z,951.33
2019-02-22T10:29:27.026Z,951.31
2019-02-22T10:30:28.002Z,951.3
2019-02-22T10:31:28.985Z,951.34
2019-02-22T10:32:29.681Z,951.36
2019-02-22T10:33:37.510Z,951.41
2019-02-22T10:33:42.670Z,951.37
2019-02-22T10:34:43.175Z,951.36
2019-02-22T10:35:44.611Z,951.39
2019-02-22T10:36:46.086Z,951.42
2019-02-22T10:37:46.990Z,951.45
2019-02-22T10:38:48.069Z,951.45
2019-02-22T10:39:48.065Z,951.44
2019-02-22T10:40:48.397Z,951.44
2019-02-22T10:41:49.426Z,951.44
2019-02-22T10:42:50.200Z,951.46
2019-02-22T10:43:51.012Z,951.44
2019-02-22T10:44:52.137Z,951.49
2019-02-22T10:45:52.558Z,951.51
2019-02-22T10:46:53.594Z,951.6
2019-02-22T10:47:54.585Z,951.67
2019-02-22T10:48:55.184Z,951.66
2019-02-22T10:49:56.160Z,951.69
2019-02-22T10:50:59.841Z,951.69
2019-02-22T10:52:01.680Z,951.68
2019-02-22T10:53:03.574Z,951.67
2019-02-22T10:54:04.567Z,951.7
2019-02-22T10:55:05.657Z,951.71
2019-02-22T10:56:06.633Z,951.74
2019-02-22T10:57:07.931Z,951.7
2019-02-22T10:58:08.528Z,951.74
2019-02-22T10:59:09.652Z,951.72
2019-02-22T11:00:10.181Z,951.75
2019-02-22T11:01:10.611Z,951.74
2019-02-22T11:02:11.940Z,951.7
2019-02-22T11:03:13.366Z,951.69
2019-02-22T11:04:14.381Z,951.72
2019-02-22T11:05:14.912Z,951.74
2019-02-22T11:06:15.886Z,951.68
2019-02-22T11:07:16.427Z,951.69
2019-02-22T11:08:16.685Z,951.7
2019-02-22T11:09:17.772Z,951.71
2019-02-22T11:10:18.387Z,951.7
2019-02-22T11:11:19.216Z,951.7
2019-02-22T11:12:19.973Z,951.68
2019-02-22T11:13:22.180Z,951.69
2019-02-22T11:14:30.037Z,951.64
2019-02-22T11:14:35.950Z,951.64
2019-02-22T11:15:36.673Z,951.64
2019-02-22T11:16:37.967Z,951.65
2019-02-22T11:17:38.672Z,951.61
2019-02-22T11:18:39.837Z,951.57
2019-02-22T11:19:40.998Z,951.58
2019-02-22T11:20:42.947Z,951.56
2019-02-22T11:20:53.174Z,951.66
2019-02-22T11:21:54.379Z,951.65
2019-02-22T11:22:55.456Z,951.68
2019-02-22T11:23:06.852Z,951.64
2019-02-22T11:24:07.575Z,951.68
2019-02-22T11:25:08.005Z,951.67
2019-02-22T11:26:08.992Z,951.71
2019-02-22T11:27:09.528Z,951.72
2019-02-22T11:28:10.066Z,951.73
2019-02-22T11:29:10.563Z,951.68
2019-02-22T11:30:11.011Z,951.68
2019-02-22T11:31:11.719Z,951.68
2019-02-22T11:32:12.308Z,951.71
2019-02-22T11:33:12.730Z,951.63
2019-02-22T11:34:13.444Z,951.66
2019-02-22T11:35:13.862Z,951.65
2019-02-22T11:36:14.549Z,951.66
2019-02-22T11:37:15.069Z,951.63
2019-02-22T11:38:15.862Z,951.67
2019-02-22T11:39:16.850Z,951.68
2019-02-22T11:40:17.621Z,951.69
2019-02-22T11:41:18.173Z,951.69
2019-02-22T11:42:18.843Z,951.72
2019-02-22T11:43:19.051Z,951.74
2019-02-22T11:44:20.046Z,951.8
2019-02-22T11:45:20.754Z,951.81
2019-02-22T11:46:21.305Z,951.78
2019-02-22T11:47:21.877Z,951.83
2019-02-22T11:48:22.856Z,951.76
2019-02-22T11:49:23.931Z,951.79
2019-02-22T11:50:24.636Z,951.76
2019-02-22T11:51:25.785Z,951.81
2019-02-22T11:52:26.949Z,951.78
2019-02-22T11:53:27.209Z,951.78
2019-02-22T11:54:28.062Z,951.79
2019-02-22T11:55:28.764Z,951.77
2019-02-22T11:56:31.270Z,951.81
2019-02-22T11:57:33.336Z,951.82
2019-02-22T11:57:43.917Z,951.78
2019-02-22T11:57:56.389Z,951.76
2019-02-22T11:58:08.042Z,951.83
2019-02-22T11:59:08.309Z,951.81
2019-02-22T12:00:09.296Z,951.82
2019-02-22T12:01:12.161Z,951.79
2019-02-22T12:01:21.664Z,951.79
2019-02-22T12:02:22.146Z,951.83
2019-02-22T12:03:25.336Z,951.82
2019-02-22T12:04:25.395Z,951.83
2019-02-22T12:05:26.176Z,951.83
2019-02-22T12:06:26.951Z,951.84
2019-02-22T12:07:27.654Z,951.83
2019-02-22T12:08:28.172Z,951.84
2019-02-22T12:09:28.694Z,951.83
2019-02-22T12:10:29.762Z,951.9
2019-02-22T12:11:30.480Z,951.86
2019-02-22T12:12:31.468Z,951.85
2019-02-22T12:13:33.027Z,951.86
2019-02-22T12:14:34.015Z,951.86
2019-02-22T12:15:34.730Z,951.85
2019-02-22T12:16:35.205Z,951.87
2019-02-22T12:17:36.460Z,951.88
2019-02-22T12:18:37.274Z,951.86
2019-02-22T12:19:38.268Z,951.86
2019-02-22T12:20:41.369Z,951.88
2019-02-22T12:21:42.352Z,951.9
2019-02-22T12:22:43.517Z,951.88
2019-02-22T12:23:44.228Z,951.93
2019-02-22T12:24:45.213Z,951.88
2019-02-22T12:25:45.961Z,951.92
2019-02-22T12:26:48.046Z,951.91